createdAt,value
2022-08-25T00:01:33.413Z,14.27
2022-08-25T00:04:02.538Z,12.82
2022-08-25T00:06:31.235Z,15.43
2022-08-25T00:09:00.082Z,14.88
2022-08-25T00:11:32.910Z,14.60
2022-08-25T00:14:04.199Z,16.88
2022-08-25T00:16:32.868Z,13.68
2022-08-25T00:19:05.440Z,14.75
2022-08-25T00:21:33.137Z,15.02
2022-08-25T00:24:02.704Z,14.15
2022-08-25T00:26:31.097Z,14.15
2022-08-25T00:29:01.870Z,12.95
2022-08-25T00:31:37.788Z,13.82
2022-08-25T00:34:09.869Z,15.18
2022-08-25T00:36:38.711Z,13.18
2022-08-25T00:39:08.487Z,15.88
2022-08-25T00:41:36.767Z,13.40
2022-08-25T00:44:07.985Z,13.27
2022-08-25T00:46:42.462Z,15.77
2022-08-25T00:49:30.627Z,16.05
2022-08-25T00:52:43.886Z,11.82
2022-08-25T00:55:14.176Z,12.80
2022-08-25T00:57:46.737Z,12.32
2022-08-25T01:00:21.138Z,11.77
2022-08-25T01:02:48.736Z,13.25
2022-08-25T01:05:16.302Z,13.38
2022-08-25T01:07:44.762Z,16.40
2022-08-25T01:10:13.737Z,14.32
2022-08-25T01:12:41.586Z,13.50
2022-08-25T01:15:12.795Z,16.15
2022-08-25T01:17:52.255Z,14.18
2022-08-25T01:20:22.491Z,15.00
2022-08-25T01:22:55.606Z,13.95
2022-08-25T01:25:53.332Z,15.07
2022-08-25T01:28:21.474Z,12.30
2022-08-25T01:30:49.600Z,16.92
2022-08-25T01:33:19.762Z,14.60
2022-08-25T01:35:47.563Z,17.02
2022-08-25T01:38:15.630Z,12.85
2022-08-25T01:40:43.547Z,13.63
2022-08-25T01:43:10.988Z,15.68
2022-08-25T01:45:41.339Z,15.23
2022-08-25T01:48:09.603Z,15.48
2022-08-25T01:50:38.259Z,13.98
2022-08-25T01:53:20.785Z,12.95
2022-08-25T01:55:56.186Z,11.73
2022-08-25T01:58:27.143Z,14.27
2022-08-25T02:00:57.602Z,14.93
2022-08-25T02:03:26.971Z,13.13
2022-08-25T02:05:58.899Z,14.25
2022-08-25T02:08:26.687Z,13.73
2022-08-25T02:10:55.999Z,16.95
2022-08-25T02:13:26.969Z,18.48
2022-08-25T02:16:01.205Z,15.05
2022-08-25T02:18:29.243Z,15.90
2022-08-25T02:20:56.951Z,14.20
2022-08-25T02:23:24.537Z,14.25
2022-08-25T02:25:52.058Z,14.68
2022-08-25T02:28:19.719Z,13.52
2022-08-25T02:30:48.365Z,13.95
2022-08-25T02:33:15.926Z,15.05
2022-08-25T02:35:43.532Z,13.30
2022-08-25T02:38:11.100Z,14.25
2022-08-25T02:40:39.292Z,11.52
2022-08-25T02:43:06.895Z,15.27
2022-08-25T02:45:34.367Z,14.40
2022-08-25T02:48:03.033Z,14.52
2022-08-25T02:50:30.785Z,13.63
2022-08-25T02:52:58.326Z,13.40
2022-08-25T02:55:25.866Z,14.73
2022-08-25T02:57:53.282Z,16.73
2022-08-25T03:00:21.347Z,14.45
2022-08-25T03:02:50.829Z,14.40
2022-08-25T03:05:18.389Z,12.20
2022-08-25T03:07:46.070Z,11.32
2022-08-25T03:10:17.435Z,15.10
2022-08-25T03:12:45.764Z,14.85
2022-08-25T03:15:18.898Z,14.23
2022-08-25T03:17:47.714Z,13.65
2022-08-25T03:20:19.317Z,13.40
2022-08-25T03:22:46.762Z,12.25
2022-08-25T03:25:32.882Z,13.82
2022-08-25T03:28:01.569Z,12.45
2022-08-25T03:30:29.736Z,11.70
2022-08-25T03:32:57.306Z,10.65
2022-08-25T03:35:24.900Z,13.60
2022-08-25T03:37:56.719Z,12.43
2022-08-25T03:40:24.767Z,11.57
2022-08-25T03:42:52.443Z,14.52
2022-08-25T03:45:20.288Z,10.80
2022-08-25T03:47:49.505Z,11.85
2022-08-25T03:50:19.478Z,11.23
2022-08-25T03:52:54.888Z,11.75
2022-08-25T03:55:25.678Z,13.73
2022-08-25T03:57:54.925Z,12.70
2022-08-25T04:00:23.656Z,13.38
2022-08-25T04:02:51.300Z,13.48
2022-08-25T04:05:20.507Z,11.90
2022-08-25T04:07:48.099Z,12.73
2022-08-25T04:10:15.826Z,10.40
2022-08-25T04:12:43.441Z,12.60
2022-08-25T04:15:11.511Z,14.93
2022-08-25T04:17:40.522Z,11.98
2022-08-25T04:20:10.215Z,17.55
2022-08-25T04:22:45.034Z,13.27
2022-08-25T04:25:12.917Z,11.30
2022-08-25T04:27:40.518Z,13.40
2022-08-25T04:30:08.582Z,10.23
2022-08-25T04:32:36.913Z,12.90
2022-08-25T04:35:05.655Z,11.27
2022-08-25T04:37:33.641Z,12.75
2022-08-25T04:40:01.166Z,12.35
2022-08-25T04:42:28.934Z,11.07
2022-08-25T04:44:56.459Z,11.35
2022-08-25T04:47:24.096Z,11.98
2022-08-25T04:49:51.572Z,10.75
2022-08-25T04:52:19.103Z,13.73
2022-08-25T04:54:47.223Z,10.55
2022-08-25T04:57:14.661Z,11.10
2022-08-25T04:59:42.210Z,10.98
2022-08-25T05:02:10.196Z,10.75
2022-08-25T05:04:37.933Z,10.73
2022-08-25T05:07:06.166Z,11.27
2022-08-25T05:09:35.035Z,10.73
2022-08-25T05:12:03.361Z,11.27
2022-08-25T05:14:32.240Z,9.50
2022-08-25T05:17:00.085Z,11.50
2022-08-25T05:19:27.595Z,13.07
2022-08-25T05:21:55.233Z,11.32
2022-08-25T05:24:26.703Z,10.85
2022-08-25T05:26:54.672Z,9.68
2022-08-25T05:29:22.287Z,8.50
2022-08-25T05:31:51.000Z,9.07
2022-08-25T05:34:19.923Z,10.55
2022-08-25T05:36:48.265Z,8.50
2022-08-25T05:39:15.858Z,9.52
2022-08-25T05:41:43.400Z,8.95
2022-08-25T05:44:12.826Z,9.50
2022-08-25T05:46:40.547Z,10.85
2022-08-25T05:49:08.024Z,11.90
2022-08-25T05:51:35.525Z,9.90
2022-08-25T05:54:03.870Z,8.23
2022-08-25T05:56:31.636Z,9.48
2022-08-25T05:58:59.153Z,8.50
2022-08-25T06:01:47.865Z,10.02
2022-08-25T06:04:18.473Z,8.80
2022-08-25T06:06:45.989Z,8.88
2022-08-25T06:09:13.500Z,9.13
2022-08-25T06:11:41.859Z,8.40
2022-08-25T06:14:10.151Z,8.93
2022-08-25T06:16:39.338Z,10.93
2022-08-25T06:19:08.771Z,7.85
2022-08-25T06:21:39.279Z,7.40
2022-08-25T06:24:12.095Z,8.68
2022-08-25T06:26:42.248Z,8.13
2022-08-25T06:29:09.743Z,8.60
2022-08-25T06:31:37.277Z,8.27
2022-08-25T06:34:04.883Z,10.55
2022-08-25T06:36:32.726Z,8.80
2022-08-25T06:39:00.383Z,7.55
2022-08-25T06:41:36.732Z,8.15
2022-08-25T06:44:05.826Z,7.90
2022-08-25T06:46:36.548Z,8.23
2022-08-25T06:49:08.366Z,9.23
2022-08-25T06:51:36.532Z,8.93
2022-08-25T06:54:05.695Z,9.35
2022-08-25T06:56:34.405Z,7.20
2022-08-25T06:59:04.466Z,8.15
2022-08-25T07:01:33.593Z,7.82
2022-08-25T07:04:04.950Z,10.88
2022-08-25T07:06:35.795Z,8.13
2022-08-25T07:09:05.897Z,7.18
2022-08-25T07:11:34.591Z,6.70
2022-08-25T07:14:04.433Z,7.20
2022-08-25T07:16:32.410Z,7.57
2022-08-25T07:19:01.411Z,6.32
2022-08-25T07:21:33.589Z,8.95
2022-08-25T07:24:10.794Z,10.35
2022-08-25T07:26:40.743Z,8.27
2022-08-25T07:29:16.233Z,8.73
2022-08-25T07:31:45.476Z,9.35
2022-08-25T07:34:31.914Z,8.00
2022-08-25T07:36:59.452Z,8.82
2022-08-25T07:39:28.985Z,9.63
2022-08-25T07:41:57.252Z,6.50
2022-08-25T07:44:28.145Z,7.18
2022-08-25T07:46:56.279Z,7.40
2022-08-25T07:49:26.926Z,7.10
2022-08-25T07:52:06.439Z,6.47
2022-08-25T07:54:37.847Z,6.53
2022-08-25T07:59:42.109Z,7.32
2022-08-25T08:02:17.779Z,7.57
2022-08-25T08:04:52.643Z,7.78
2022-08-25T08:07:23.550Z,7.75
2022-08-25T08:10:42.237Z,9.63
2022-08-25T08:13:00.787Z,8.77
2022-08-25T08:15:29.579Z,7.68
2022-08-25T08:17:59.393Z,8.70
2022-08-25T08:20:27.614Z,7.47
2022-08-25T08:22:56.006Z,7.85
2022-08-25T08:25:26.551Z,6.68
2022-08-25T08:27:56.540Z,7.07
2022-08-25T08:30:25.833Z,8.02
2022-08-25T08:33:11.620Z,6.72
2022-08-25T08:35:41.121Z,9.05
2022-08-25T08:38:14.612Z,8.18
2022-08-25T08:41:24.912Z,8.57
2022-08-25T08:46:59.387Z,8.88
2022-08-25T08:49:57.280Z,8.52
2022-08-25T08:52:41.827Z,9.30
2022-08-25T08:55:36.072Z,9.65
2022-08-25T08:58:19.870Z,7.32
2022-08-25T09:00:56.894Z,8.57
2022-08-25T09:03:55.001Z,7.93
2022-08-25T09:06:37.242Z,12.30
2022-08-25T09:09:07.145Z,7.88
2022-08-25T09:12:06.242Z,10.50
2022-08-25T09:15:24.685Z,10.55
2022-08-25T09:18:22.145Z,14.25
2022-08-25T09:21:04.520Z,12.68
2022-08-25T09:24:06.031Z,11.70
2022-08-25T09:26:40.210Z,9.93
2022-08-25T09:29:21.256Z,9.88
2022-08-25T09:31:49.583Z,9.10
2022-08-25T09:34:23.629Z,8.90
2022-08-25T09:36:53.453Z,7.70
2022-08-25T09:39:21.853Z,8.65
2022-08-25T09:41:56.343Z,10.65
2022-08-25T09:44:26.173Z,10.88
2022-08-25T09:47:13.861Z,10.50
2022-08-25T09:50:01.770Z,9.60
2022-08-25T09:52:41.273Z,12.60
2022-08-25T09:55:09.115Z,12.02
2022-08-25T09:57:43.706Z,9.77
2022-08-25T10:00:17.736Z,13.65
2022-08-25T10:03:12.605Z,11.05
2022-08-25T10:06:13.143Z,10.05
2022-08-25T10:08:52.178Z,14.50
2022-08-25T10:11:38.195Z,14.00
2022-08-25T10:14:31.670Z,10.77
2022-08-25T10:17:27.708Z,12.55
2022-08-25T10:20:25.699Z,10.73
2022-08-25T10:23:11.581Z,10.20
2022-08-25T10:25:59.341Z,10.27
2022-08-25T10:28:55.537Z,8.95
2022-08-25T10:31:25.870Z,11.13
2022-08-25T10:34:15.252Z,7.90
2022-08-25T10:37:27.147Z,13.10
2022-08-25T10:40:20.863Z,10.02
2022-08-25T10:42:57.206Z,9.48
2022-08-25T10:45:44.579Z,8.63
2022-08-25T10:48:26.848Z,8.65
2022-08-25T10:50:58.679Z,9.35
2022-08-25T10:53:35.988Z,10.00
2022-08-25T10:56:42.066Z,8.20
2022-08-25T10:59:21.327Z,10.38
2022-08-25T11:02:03.714Z,8.82
2022-08-25T11:04:44.264Z,10.25
2022-08-25T11:07:25.821Z,8.27
2022-08-25T11:10:00.110Z,8.43
2022-08-25T11:12:32.850Z,10.73
2022-08-25T11:15:18.453Z,7.70
2022-08-25T11:17:53.174Z,10.50
2022-08-25T11:20:26.894Z,9.48
2022-08-25T11:23:06.741Z,7.28
2022-08-25T11:25:41.950Z,7.82
2022-08-25T11:28:12.317Z,7.82
2022-08-25T11:30:40.950Z,9.38
2022-08-25T11:33:13.468Z,8.10
2022-08-25T11:35:54.139Z,9.90
2022-08-25T11:38:39.992Z,8.90
2022-08-25T11:41:41.298Z,8.98
2022-08-25T11:44:27.398Z,9.90
2022-08-25T11:47:21.479Z,9.60
2022-08-25T11:50:06.600Z,11.38
2022-08-25T11:52:34.847Z,9.70
2022-08-25T11:55:23.579Z,10.65
2022-08-25T11:57:53.989Z,7.68
2022-08-25T12:00:43.970Z,8.52
2022-08-25T12:03:32.932Z,13.85
2022-08-25T12:06:34.354Z,13.05
2022-08-25T12:09:01.745Z,17.35
2022-08-25T12:11:38.602Z,10.40
2022-08-25T12:14:18.612Z,8.25
2022-08-25T12:16:52.160Z,8.73
2022-08-25T12:19:28.942Z,8.88
2022-08-25T12:22:16.650Z,7.75
2022-08-25T12:24:48.186Z,8.90
2022-08-25T12:27:28.304Z,8.85
2022-08-25T12:30:21.197Z,9.02
2022-08-25T12:33:07.371Z,11.73
2022-08-25T12:35:58.523Z,7.70
2022-08-25T12:38:52.112Z,10.30
2022-08-25T12:41:33.521Z,10.27
2022-08-25T12:44:42.066Z,9.85
2022-08-25T12:47:25.054Z,11.73
2022-08-25T12:49:52.630Z,10.23
2022-08-25T12:52:28.075Z,17.90
2022-08-25T12:55:05.606Z,15.55
2022-08-25T12:57:46.479Z,13.95
2022-08-25T13:00:23.874Z,8.50
2022-08-25T13:03:27.796Z,6.75
2022-08-25T13:06:44.364Z,6.55
2022-08-25T13:09:31.845Z,7.35
2022-08-25T13:11:59.308Z,9.88
2022-08-25T13:14:33.733Z,9.57
2022-08-25T13:17:06.893Z,7.97
2022-08-25T13:19:37.803Z,9.25
2022-08-25T13:22:16.536Z,10.48
2022-08-25T13:24:47.630Z,10.32
2022-08-25T13:27:25.423Z,16.20
2022-08-25T13:29:57.005Z,12.65
2022-08-25T13:32:35.079Z,8.27
2022-08-25T13:35:20.457Z,7.85
2022-08-25T13:37:49.219Z,7.20
2022-08-25T13:40:34.087Z,7.22
2022-08-25T13:43:06.251Z,8.98
2022-08-25T13:45:41.079Z,8.77
2022-08-25T13:48:22.745Z,10.98
2022-08-25T13:50:52.809Z,11.85
2022-08-25T13:53:26.492Z,12.35
2022-08-25T13:56:00.296Z,10.18
2022-08-25T13:58:44.517Z,10.20
2022-08-25T14:01:47.642Z,8.50
2022-08-25T14:04:50.887Z,8.20
2022-08-25T14:07:33.686Z,9.00
2022-08-25T14:10:08.967Z,8.30
2022-08-25T14:12:46.622Z,8.88
2022-08-25T14:15:17.233Z,10.80
2022-08-25T14:17:49.111Z,10.32
2022-08-25T14:20:29.107Z,10.93
2022-08-25T14:23:16.188Z,15.57
2022-08-25T14:25:47.871Z,12.70
2022-08-25T14:28:22.832Z,11.77
2022-08-25T14:30:54.198Z,11.10
2022-08-25T14:33:28.512Z,16.48
2022-08-25T14:35:59.732Z,13.43
2022-08-25T14:38:27.367Z,12.05
2022-08-25T14:40:55.554Z,12.73
2022-08-25T14:43:31.587Z,12.82
2022-08-25T14:46:03.588Z,11.80
2022-08-25T14:48:44.863Z,13.80
2022-08-25T14:51:16.116Z,12.80
2022-08-25T14:53:44.334Z,12.15
2022-08-25T14:56:12.129Z,11.40
2022-08-25T14:58:50.820Z,10.70
2022-08-25T15:01:29.464Z,14.18
2022-08-25T15:04:04.366Z,10.50
2022-08-25T15:06:33.638Z,12.00
2022-08-25T15:09:13.083Z,13.05
2022-08-25T15:11:50.703Z,11.98
2022-08-25T15:14:28.970Z,11.27
2022-08-25T15:17:02.321Z,12.82
2022-08-25T15:19:30.144Z,14.23
2022-08-25T15:21:58.073Z,12.90
2022-08-25T15:24:28.275Z,13.63
2022-08-25T15:26:59.612Z,17.00
2022-08-25T15:29:30.319Z,16.33
2022-08-25T15:32:00.526Z,14.20
2022-08-25T15:34:28.884Z,16.67
2022-08-25T15:37:06.696Z,16.20
2022-08-25T15:39:34.419Z,15.55
2022-08-25T15:42:02.818Z,18.55
2022-08-25T15:44:32.342Z,19.77
2022-08-25T15:47:00.569Z,17.15
2022-08-25T15:49:29.760Z,19.08
2022-08-25T15:51:59.345Z,17.48
2022-08-25T15:54:28.495Z,18.75
2022-08-25T15:56:59.908Z,14.48
2022-08-25T15:59:28.441Z,17.75
2022-08-25T16:01:56.210Z,18.48
2022-08-25T16:04:25.406Z,14.68
2022-08-25T16:06:54.485Z,14.40
2022-08-25T16:09:23.979Z,14.98
2022-08-25T16:11:57.055Z,12.10
2022-08-25T16:14:27.867Z,15.43
2022-08-25T16:16:58.332Z,14.32
2022-08-25T16:19:28.930Z,16.83
2022-08-25T16:21:57.808Z,12.82
2022-08-25T16:24:25.649Z,18.63
2022-08-25T16:26:55.913Z,17.40
2022-08-25T16:29:24.223Z,15.35
2022-08-25T16:31:53.267Z,17.13
2022-08-25T16:34:21.195Z,20.15
2022-08-25T16:36:48.636Z,17.00
2022-08-25T16:39:20.823Z,17.02
2022-08-25T16:41:49.681Z,18.05
2022-08-25T16:44:22.590Z,15.32
2022-08-25T16:46:54.613Z,17.40
2022-08-25T16:49:24.338Z,16.42
2022-08-25T16:51:57.475Z,18.30
2022-08-25T16:57:12.796Z,17.38
2022-08-25T16:59:40.208Z,15.80
2022-08-25T17:02:07.827Z,17.83
2022-08-25T17:04:35.276Z,21.17
2022-08-25T17:07:05.124Z,24.73
2022-08-25T17:09:32.728Z,24.25
2022-08-25T17:12:00.360Z,54.47
2022-08-25T17:14:27.828Z,20.77
2022-08-25T17:16:55.337Z,25.85
2022-08-25T17:19:25.207Z,22.83
2022-08-25T17:21:54.934Z,21.52
2022-08-25T17:24:29.367Z,21.70
2022-08-25T17:27:01.391Z,23.67
2022-08-25T17:29:29.710Z,21.23
2022-08-25T17:31:59.276Z,23.33
2022-08-25T17:34:27.439Z,16.55
2022-08-25T17:36:56.617Z,24.42
2022-08-25T17:39:26.035Z,18.73
2022-08-25T17:41:53.926Z,19.70
2022-08-25T17:44:21.538Z,16.35
2022-08-25T17:46:49.055Z,15.25
2022-08-25T17:49:17.642Z,17.13
2022-08-25T17:51:45.727Z,15.15
2022-08-25T17:54:14.080Z,14.80
2022-08-25T17:56:41.668Z,16.73
2022-08-25T17:59:10.081Z,18.58
2022-08-25T18:01:40.853Z,16.38
2022-08-25T18:04:17.285Z,19.23
2022-08-25T18:06:48.726Z,14.45
2022-08-25T18:09:17.381Z,14.23
2022-08-25T18:11:46.149Z,15.95
2022-08-25T18:14:15.125Z,15.23
2022-08-25T18:16:42.767Z,12.07
2022-08-25T18:19:14.470Z,14.73
2022-08-25T18:21:43.185Z,13.25
2022-08-25T18:24:11.552Z,21.27
2022-08-25T18:26:41.998Z,14.52
2022-08-25T18:29:13.381Z,12.65
2022-08-25T18:31:42.269Z,13.43
2022-08-25T18:34:11.670Z,16.83
2022-08-25T18:36:41.201Z,13.48
2022-08-25T18:39:31.540Z,12.73
2022-08-25T18:42:02.545Z,14.65
2022-08-25T18:44:30.268Z,14.77
2022-08-25T18:46:58.286Z,12.02
2022-08-25T18:49:26.865Z,13.60
2022-08-25T18:51:56.663Z,15.10
2022-08-25T18:54:24.179Z,15.75
2022-08-25T18:56:54.874Z,14.93
2022-08-25T18:59:23.582Z,14.32
2022-08-25T19:01:54.215Z,13.27
2022-08-25T19:04:28.369Z,12.00
2022-08-25T19:07:00.283Z,16.75
2022-08-25T19:09:28.153Z,17.08
2022-08-25T19:11:56.055Z,12.40
2022-08-25T19:14:23.862Z,16.05
2022-08-25T19:16:54.777Z,15.63
2022-08-25T19:19:23.815Z,11.77
2022-08-25T19:21:51.855Z,17.27
2022-08-25T19:24:19.699Z,12.57
2022-08-25T19:26:49.584Z,16.67
2022-08-25T19:29:20.201Z,11.38
2022-08-25T19:31:50.179Z,15.35
2022-08-25T19:34:28.220Z,12.57
2022-08-25T19:37:00.480Z,15.52
2022-08-25T19:39:30.634Z,14.48
2022-08-25T19:41:58.548Z,15.15
2022-08-25T19:44:27.909Z,17.02
2022-08-25T19:46:56.684Z,13.05
2022-08-25T19:49:31.772Z,13.32
2022-08-25T19:52:03.519Z,13.93
2022-08-25T19:54:44.167Z,15.38
2022-08-25T19:57:28.472Z,16.13
2022-08-25T20:00:02.802Z,17.17
2022-08-25T20:02:39.954Z,15.55
2022-08-25T20:05:08.549Z,18.13
2022-08-25T20:07:36.376Z,15.50
2022-08-25T20:10:07.951Z,14.70
2022-08-25T20:12:35.840Z,16.13
2022-08-25T20:15:05.757Z,17.80
2022-08-25T20:17:33.877Z,15.45
2022-08-25T20:20:05.564Z,15.40
2022-08-25T20:22:34.295Z,15.30
2022-08-25T20:25:15.134Z,15.98
2022-08-25T20:27:48.675Z,16.02
2022-08-25T20:30:25.822Z,12.98
2022-08-25T20:32:55.017Z,17.33
2022-08-25T20:35:26.691Z,13.05
2022-08-25T20:37:56.933Z,17.27
2022-08-25T20:40:28.137Z,14.25
2022-08-25T20:42:58.925Z,15.00
2022-08-25T20:45:26.562Z,12.07
2022-08-25T20:47:54.046Z,16.08
2022-08-25T20:50:23.731Z,16.67
2022-08-25T20:52:54.336Z,13.85
2022-08-25T20:55:22.111Z,15.35
2022-08-25T20:57:49.692Z,12.60
2022-08-25T21:00:17.920Z,13.75
2022-08-25T21:02:46.585Z,12.85
2022-08-25T21:05:14.543Z,11.82
2022-08-25T21:07:42.266Z,15.18
2022-08-25T21:10:14.377Z,13.68
2022-08-25T21:12:43.504Z,13.33
2022-08-25T21:15:17.910Z,12.05
2022-08-25T21:17:50.898Z,15.82
2022-08-25T21:20:18.715Z,14.07
2022-08-25T21:22:46.426Z,15.98
2022-08-25T21:25:14.660Z,14.48
2022-08-25T21:27:43.377Z,14.15
2022-08-25T21:30:12.367Z,12.73
2022-08-25T21:32:39.857Z,11.63
2022-08-25T21:35:23.441Z,13.07
2022-08-25T21:37:53.254Z,16.65
2022-08-25T21:40:23.268Z,16.48
2022-08-25T21:42:51.503Z,15.40
2022-08-25T21:45:20.944Z,13.77
2022-08-25T21:47:49.652Z,19.17
2022-08-25T21:50:17.270Z,19.50
2022-08-25T21:52:45.308Z,14.43
2022-08-25T21:55:15.991Z,16.55
2022-08-25T21:57:44.197Z,13.57
2022-08-25T22:00:15.224Z,19.45
2022-08-25T22:02:46.126Z,16.80
2022-08-25T22:05:13.965Z,16.15
2022-08-25T22:07:44.317Z,14.10
2022-08-25T22:10:17.746Z,18.83
2022-08-25T22:12:47.913Z,16.17
2022-08-25T22:15:18.003Z,16.17
2022-08-25T22:17:47.921Z,14.80
2022-08-25T22:20:18.410Z,19.48
2022-08-25T22:22:46.022Z,17.40
2022-08-25T22:25:13.690Z,21.15
2022-08-25T22:27:41.277Z,20.73
2022-08-25T22:30:09.469Z,15.90
2022-08-25T22:32:37.688Z,19.75
2022-08-25T22:35:05.566Z,17.58
2022-08-25T22:37:34.113Z,15.18
2022-08-25T22:40:03.146Z,18.70
2022-08-25T22:42:31.641Z,19.30
2022-08-25T22:44:59.205Z,18.75
2022-08-25T22:47:26.761Z,17.45
2022-08-25T22:49:55.630Z,18.65
2022-08-25T22:52:33.222Z,16.80
2022-08-25T22:55:01.969Z,18.58
2022-08-25T22:57:31.094Z,16.98
2022-08-25T22:59:59.513Z,16.38
2022-08-25T23:02:30.240Z,16.77
2022-08-25T23:04:58.114Z,19.00
2022-08-25T23:07:31.289Z,15.90
2022-08-25T23:10:02.803Z,17.80
2022-08-25T23:12:31.149Z,17.00
2022-08-25T23:14:58.638Z,16.08
2022-08-25T23:17:29.516Z,18.02
2022-08-25T23:19:57.297Z,14.45
2022-08-25T23:22:24.833Z,19.77
2022-08-25T23:24:54.571Z,15.30
2022-08-25T23:27:22.081Z,19.10
2022-08-25T23:29:50.499Z,16.63
2022-08-25T23:32:19.077Z,17.67
2022-08-25T23:34:47.115Z,16.17
2022-08-25T23:37:18.638Z,15.40
2022-08-25T23:39:50.013Z,18.00
2022-08-25T23:42:19.477Z,16.30
2022-08-25T23:44:48.233Z,15.23
2022-08-25T23:47:16.450Z,15.70
2022-08-25T23:49:45.870Z,15.55
2022-08-25T23:52:17.491Z,19.58
2022-08-25T23:54:46.113Z,18.45
2022-08-25T23:57:13.583Z,19.60
2022-08-25T23:59:43.317Z,19.58
